sensor_id;sensor_type;location;lat;lon;timestamp;temperature;humidity
5834;DHT22;2943;48.012;10.968;2024-01-07T00:01:19;1.40;99.90
5834;DHT22;2943;48.012;10.968;2024-01-07T00:03:46;1.40;99.90
5834;DHT22;2943;48.012;10.968;2024-01-07T00:06:13;1.30;99.90
5834;DHT22;2943;48.012;10.968;2024-01-07T00:08:39;1.30;99.90
5834;DHT22;2943;48.012;10.968;2024-01-07T00:11:06;1.30;99.90
5834;DHT22;2943;48.012;10.968;2024-01-07T00:13:35;1.30;99.90
5834;DHT22;2943;48.012;10.968;2024-01-07T00:16:00;1.30;99.90
5834;DHT22;2943;48.012;10.968;2024-01-07T00:18:29;1.30;99.90
5834;DHT22;2943;48.012;10.968;2024-01-07T00:20:56;1.30;99.90
5834;DHT22;2943;48.012;10.968;2024-01-07T00:23:23;1.30;99.90
5834;DHT22;2943;48.012;10.968;2024-01-07T00:25:50;1.30;99.90
5834;DHT22;2943;48.012;10.968;2024-01-07T00:28:16;1.30;99.90
5834;DHT22;2943;48.012;10.968;2024-01-07T00:30:45;1.30;99.90
5834;DHT22;2943;48.012;10.968;2024-01-07T00:33:12;1.20;99.90
5834;DHT22;2943;48.012;10.968;2024-01-07T00:35:39;1.20;99.90
5834;DHT22;2943;48.012;10.968;2024-01-07T00:38:06;1.20;99.90
5834;DHT22;2943;48.012;10.968;2024-01-07T00:40:33;1.20;99.90
5834;DHT22;2943;48.012;10.968;2024-01-07T00:42:59;1.20;99.90
5834;DHT22;2943;48.012;10.968;2024-01-07T00:45:26;1.20;99.90
5834;DHT22;2943;48.012;10.968;2024-01-07T00:47:54;1.20;99.90
5834;DHT22;2943;48.012;10.968;2024-01-07T00:50:21;1.30;99.90
5834;DHT22;2943;48.012;10.968;2024-01-07T00:52:48;1.20;99.90
5834;DHT22;2943;48.012;10.968;2024-01-07T00:55:15;1.20;99.90
5834;DHT22;2943;48.012;10.968;2024-01-07T00:57:42;1.20;99.90
5834;DHT22;2943;48.012;10.968;2024-01-07T01:00:09;1.30;99.90
5834;DHT22;2943;48.012;10.968;2024-01-07T01:02:37;1.30;99.90
5834;DHT22;2943;48.012;10.968;2024-01-07T01:05:06;1.30;99.90
5834;DHT22;2943;48.012;10.968;2024-01-07T01:07:33;1.20;99.90
5834;DHT22;2943;48.012;10.968;2024-01-07T01:10:02;1.30;99.90
5834;DHT22;2943;48.012;10.968;2024-01-07T01:12:29;1.20;99.90
5834;DHT22;2943;48.012;10.968;2024-01-07T01:14:56;1.20;99.90
5834;DHT22;2943;48.012;10.968;2024-01-07T01:17:23;1.10;99.90
5834;DHT22;2943;48.012;10.968;2024-01-07T01:19:50;1.00;99.90
5834;DHT22;2943;48.012;10.968;2024-01-07T01:22:18;1.00;99.90
5834;DHT22;2943;48.012;10.968;2024-01-07T01:24:45;1.00;99.90
5834;DHT22;2943;48.012;10.968;2024-01-07T01:27:13;1.00;99.90
5834;DHT22;2943;48.012;10.968;2024-01-07T01:29:41;1.00;99.90
5834;DHT22;2943;48.012;10.968;2024-01-07T01:32:08;1.00;99.90
5834;DHT22;2943;48.012;10.968;2024-01-07T01:34:35;0.90;99.90
5834;DHT22;2943;48.012;10.968;2024-01-07T01:37:03;0.90;99.90
5834;DHT22;2943;48.012;10.968;2024-01-07T01:39:31;0.90;99.90
5834;DHT22;2943;48.012;10.968;2024-01-07T01:41:58;0.90;99.90
5834;DHT22;2943;48.012;10.968;2024-01-07T01:44:25;1.00;99.90
5834;DHT22;2943;48.012;10.968;2024-01-07T01:46:53;0.90;99.90
5834;DHT22;2943;48.012;10.968;2024-01-07T01:49:20;1.00;99.90
5834;DHT22;2943;48.012;10.968;2024-01-07T01:51:47;1.00;99.90
5834;DHT22;2943;48.012;10.968;2024-01-07T01:54:15;1.00;99.90
5834;DHT22;2943;48.012;10.968;2024-01-07T01:56:44;1.10;99.90
5834;DHT22;2943;48.012;10.968;2024-01-07T01:59:12;1.00;99.90
5834;DHT22;2943;48.012;10.968;2024-01-07T02:01:42;1.00;99.90
5834;DHT22;2943;48.012;10.968;2024-01-07T02:04:10;1.00;99.90
5834;DHT22;2943;48.012;10.968;2024-01-07T02:06:37;1.10;99.90
5834;DHT22;2943;48.012;10.968;2024-01-07T02:09:04;1.10;99.90
5834;DHT22;2943;48.012;10.968;2024-01-07T02:11:32;1.10;99.90
5834;DHT22;2943;48.012;10.968;2024-01-07T02:14:01;1.10;99.90
5834;DHT22;2943;48.012;10.968;2024-01-07T02:16:28;1.10;99.90
5834;DHT22;2943;48.012;10.968;2024-01-07T02:18:54;1.10;99.90
5834;DHT22;2943;48.012;10.968;2024-01-07T02:21:21;1.10;99.90
5834;DHT22;2943;48.012;10.968;2024-01-07T02:23:48;1.00;99.90
5834;DHT22;2943;48.012;10.968;2024-01-07T02:26:16;1.00;99.90
5834;DHT22;2943;48.012;10.968;2024-01-07T02:28:43;1.00;99.90
5834;DHT22;2943;48.012;10.968;2024-01-07T02:31:10;1.00;99.90
5834;DHT22;2943;48.012;10.968;2024-01-07T02:33:37;1.00;99.90
5834;DHT22;2943;48.012;10.968;2024-01-07T02:36:04;0.90;99.90
5834;DHT22;2943;48.012;10.968;2024-01-07T02:38:33;0.80;99.90
5834;DHT22;2943;48.012;10.968;2024-01-07T02:41:00;0.80;99.90
5834;DHT22;2943;48.012;10.968;2024-01-07T02:43:28;0.80;99.90
5834;DHT22;2943;48.012;10.968;2024-01-07T02:45:55;0.80;99.90
5834;DHT22;2943;48.012;10.968;2024-01-07T02:48:22;0.70;99.90
5834;DHT22;2943;48.012;10.968;2024-01-07T02:50:48;0.70;99.90
5834;DHT22;2943;48.012;10.968;2024-01-07T02:53:15;0.70;99.90
5834;DHT22;2943;48.012;10.968;2024-01-07T02:55:42;0.70;99.90
5834;DHT22;2943;48.012;10.968;2024-01-07T02:58:09;0.70;99.90
5834;DHT22;2943;48.012;10.968;2024-01-07T03:00:37;0.70;99.90
5834;DHT22;2943;48.012;10.968;2024-01-07T03:03:04;0.70;99.90
5834;DHT22;2943;48.012;10.968;2024-01-07T03:05:31;0.70;99.90
5834;DHT22;2943;48.012;10.968;2024-01-07T03:08:00;0.70;99.90
5834;DHT22;2943;48.012;10.968;2024-01-07T03:10:27;0.70;99.90
5834;DHT22;2943;48.012;10.968;2024-01-07T03:12:54;0.70;99.90
5834;DHT22;2943;48.012;10.968;2024-01-07T03:15:21;0.70;99.90
5834;DHT22;2943;48.012;10.968;2024-01-07T03:17:49;0.60;99.90
5834;DHT22;2943;48.012;10.968;2024-01-07T03:20:16;0.70;99.90
5834;DHT22;2943;48.012;10.968;2024-01-07T03:22:43;0.70;99.90
5834;DHT22;2943;48.012;10.968;2024-01-07T03:25:11;0.70;99.90
5834;DHT22;2943;48.012;10.968;2024-01-07T03:27:38;0.70;99.90
5834;DHT22;2943;48.012;10.968;2024-01-07T03:30:07;0.70;99.90
5834;DHT22;2943;48.012;10.968;2024-01-07T03:32:36;0.70;99.90
5834;DHT22;2943;48.012;10.968;2024-01-07T03:35:07;0.70;99.90
5834;DHT22;2943;48.012;10.968;2024-01-07T03:37:35;0.70;99.90
5834;DHT22;2943;48.012;10.968;2024-01-07T03:40:02;0.70;99.90
5834;DHT22;2943;48.012;10.968;2024-01-07T03:42:29;0.70;99.90
5834;DHT22;2943;48.012;10.968;2024-01-07T03:44:56;0.70;99.90
5834;DHT22;2943;48.012;10.968;2024-01-07T03:47:23;0.70;99.90
5834;DHT22;2943;48.012;10.968;2024-01-07T03:49:49;0.70;99.90
5834;DHT22;2943;48.012;10.968;2024-01-07T03:52:18;0.70;99.90
5834;DHT22;2943;48.012;10.968;2024-01-07T03:54:44;0.70;99.90
5834;DHT22;2943;48.012;10.968;2024-01-07T03:57:11;0.70;99.90
5834;DHT22;2943;48.012;10.968;2024-01-07T03:59:38;0.70;99.90
5834;DHT22;2943;48.012;10.968;2024-01-07T04:02:06;0.70;99.90
5834;DHT22;2943;48.012;10.968;2024-01-07T04:04:33;0.70;99.90
5834;DHT22;2943;48.012;10.968;2024-01-07T04:06:59;0.80;99.90
5834;DHT22;2943;48.012;10.968;2024-01-07T04:09:28;0.80;99.90
5834;DHT22;2943;48.012;10.968;2024-01-07T04:11:55;0.80;99.90
5834;DHT22;2943;48.012;10.968;2024-01-07T04:14:22;0.90;99.90
5834;DHT22;2943;48.012;10.968;2024-01-07T04:16:49;0.90;99.90
5834;DHT22;2943;48.012;10.968;2024-01-07T04:19:16;0.90;99.90
5834;DHT22;2943;48.012;10.968;2024-01-07T04:21:46;0.90;99.90
5834;DHT22;2943;48.012;10.968;2024-01-07T04:24:13;0.90;99.90
5834;DHT22;2943;48.012;10.968;2024-01-07T04:26:41;0.90;99.90
5834;DHT22;2943;48.012;10.968;2024-01-07T04:29:08;0.90;99.90
5834;DHT22;2943;48.012;10.968;2024-01-07T04:31:34;0.90;99.90
5834;DHT22;2943;48.012;10.968;2024-01-07T04:34:03;0.90;99.90
5834;DHT22;2943;48.012;10.968;2024-01-07T04:36:29;0.90;99.90
5834;DHT22;2943;48.012;10.968;2024-01-07T04:38:56;0.90;99.90
5834;DHT22;2943;48.012;10.968;2024-01-07T04:41:23;0.80;99.90
5834;DHT22;2943;48.012;10.968;2024-01-07T04:43:53;0.80;99.90
5834;DHT22;2943;48.012;10.968;2024-01-07T04:46:19;0.70;99.90
5834;DHT22;2943;48.012;10.968;2024-01-07T04:48:46;0.70;99.90
5834;DHT22;2943;48.012;10.968;2024-01-07T04:51:14;0.80;99.90
5834;DHT22;2943;48.012;10.968;2024-01-07T04:53:40;0.80;99.90
5834;DHT22;2943;48.012;10.968;2024-01-07T04:56:07;0.80;99.90
5834;DHT22;2943;48.012;10.968;2024-01-07T04:58:34;0.80;99.90
5834;DHT22;2943;48.012;10.968;2024-01-07T05:01:03;0.80;99.90
5834;DHT22;2943;48.012;10.968;2024-01-07T05:03:30;0.80;99.90
5834;DHT22;2943;48.012;10.968;2024-01-07T05:05:57;0.80;99.90
5834;DHT22;2943;48.012;10.968;2024-01-07T05:08:24;0.80;99.90
5834;DHT22;2943;48.012;10.968;2024-01-07T05:10:51;0.80;99.90
5834;DHT22;2943;48.012;10.968;2024-01-07T05:13:18;0.80;99.90
5834;DHT22;2943;48.012;10.968;2024-01-07T05:15:45;0.90;99.90
5834;DHT22;2943;48.012;10.968;2024-01-07T05:18:13;0.90;99.90
5834;DHT22;2943;48.012;10.968;2024-01-07T05:20:40;0.90;99.90
5834;DHT22;2943;48.012;10.968;2024-01-07T05:23:07;0.90;99.90
5834;DHT22;2943;48.012;10.968;2024-01-07T05:25:36;0.80;99.90
5834;DHT22;2943;48.012;10.968;2024-01-07T05:28:03;0.80;99.90
5834;DHT22;2943;48.012;10.968;2024-01-07T05:30:30;0.80;99.90
5834;DHT22;2943;48.012;10.968;2024-01-07T05:32:57;0.80;99.90
5834;DHT22;2943;48.012;10.968;2024-01-07T05:35:25;0.80;99.90
5834;DHT22;2943;48.012;10.968;2024-01-07T05:37:52;0.80;99.90
5834;DHT22;2943;48.012;10.968;2024-01-07T05:40:19;0.80;99.90
5834;DHT22;2943;48.012;10.968;2024-01-07T05:42:46;0.80;99.90
5834;DHT22;2943;48.012;10.968;2024-01-07T05:45:13;0.70;99.90
5834;DHT22;2943;48.012;10.968;2024-01-07T05:47:40;0.80;99.90
5834;DHT22;2943;48.012;10.968;2024-01-07T05:50:07;0.70;99.90
5834;DHT22;2943;48.012;10.968;2024-01-07T05:52:37;0.70;99.90
5834;DHT22;2943;48.012;10.968;2024-01-07T05:55:05;0.70;99.90
5834;DHT22;2943;48.012;10.968;2024-01-07T05:57:32;0.70;99.90
5834;DHT22;2943;48.012;10.968;2024-01-07T05:59:59;0.70;99.90
5834;DHT22;2943;48.012;10.968;2024-01-07T06:02:26;0.70;99.90
5834;DHT22;2943;48.012;10.968;2024-01-07T06:05:02;0.70;99.90
5834;DHT22;2943;48.012;10.968;2024-01-07T06:07:28;0.80;99.90
5834;DHT22;2943;48.012;10.968;2024-01-07T06:09:58;0.70;99.90
5834;DHT22;2943;48.012;10.968;2024-01-07T06:12:24;0.70;99.90
5834;DHT22;2943;48.012;10.968;2024-01-07T06:14:51;0.70;99.90
5834;DHT22;2943;48.012;10.968;2024-01-07T06:17:18;0.70;99.90
5834;DHT22;2943;48.012;10.968;2024-01-07T06:19:45;0.70;99.90
5834;DHT22;2943;48.012;10.968;2024-01-07T06:22:12;0.70;99.90
5834;DHT22;2943;48.012;10.968;2024-01-07T06:24:38;0.70;99.90
5834;DHT22;2943;48.012;10.968;2024-01-07T06:27:07;0.70;99.90
5834;DHT22;2943;48.012;10.968;2024-01-07T06:29:34;0.80;99.90
5834;DHT22;2943;48.012;10.968;2024-01-07T06:32:01;0.80;99.90
5834;DHT22;2943;48.012;10.968;2024-01-07T06:34:28;0.80;99.90
5834;DHT22;2943;48.012;10.968;2024-01-07T06:36:55;0.90;99.90
5834;DHT22;2943;48.012;10.968;2024-01-07T06:39:22;0.90;99.90
5834;DHT22;2943;48.012;10.968;2024-01-07T06:41:49;0.80;99.90
5834;DHT22;2943;48.012;10.968;2024-01-07T06:44:17;0.90;99.90
5834;DHT22;2943;48.012;10.968;2024-01-07T06:46:44;0.90;99.90
5834;DHT22;2943;48.012;10.968;2024-01-07T06:49:11;0.90;99.90
5834;DHT22;2943;48.012;10.968;2024-01-07T06:51:38;0.80;99.90
5834;DHT22;2943;48.012;10.968;2024-01-07T06:54:05;0.80;99.90
5834;DHT22;2943;48.012;10.968;2024-01-07T06:56:32;0.90;99.90
5834;DHT22;2943;48.012;10.968;2024-01-07T06:58:59;0.90;99.90
5834;DHT22;2943;48.012;10.968;2024-01-07T07:01:27;0.90;99.90
5834;DHT22;2943;48.012;10.968;2024-01-07T07:03:55;0.90;99.90
5834;DHT22;2943;48.012;10.968;2024-01-07T07:06:22;0.90;99.90
5834;DHT22;2943;48.012;10.968;2024-01-07T07:08:49;1.00;99.90
5834;DHT22;2943;48.012;10.968;2024-01-07T07:11:16;1.00;99.90
5834;DHT22;2943;48.012;10.968;2024-01-07T07:13:43;1.00;99.90
5834;DHT22;2943;48.012;10.968;2024-01-07T07:16:10;1.00;99.90
5834;DHT22;2943;48.012;10.968;2024-01-07T07:18:38;1.00;99.90
5834;DHT22;2943;48.012;10.968;2024-01-07T07:21:05;1.10;99.90
5834;DHT22;2943;48.012;10.968;2024-01-07T07:23:35;1.10;99.90
5834;DHT22;2943;48.012;10.968;2024-01-07T07:26:02;1.10;99.90
5834;DHT22;2943;48.012;10.968;2024-01-07T07:28:29;1.10;99.90
5834;DHT22;2943;48.012;10.968;2024-01-07T07:30:56;1.10;99.90
5834;DHT22;2943;48.012;10.968;2024-01-07T07:33:23;1.10;99.90
5834;DHT22;2943;48.012;10.968;2024-01-07T07:35:51;1.10;99.90
5834;DHT22;2943;48.012;10.968;2024-01-07T07:38:18;1.10;99.90
5834;DHT22;2943;48.012;10.968;2024-01-07T07:40:45;1.10;99.90
5834;DHT22;2943;48.012;10.968;2024-01-07T07:43:18;1.10;99.90
5834;DHT22;2943;48.012;10.968;2024-01-07T07:45:45;1.10;99.90
5834;DHT22;2943;48.012;10.968;2024-01-07T07:48:12;1.10;99.90
5834;DHT22;2943;48.012;10.968;2024-01-07T07:50:39;1.10;99.90
5834;DHT22;2943;48.012;10.968;2024-01-07T07:53:08;1.10;99.90
5834;DHT22;2943;48.012;10.968;2024-01-07T07:55:35;1.10;99.90
5834;DHT22;2943;48.012;10.968;2024-01-07T07:58:01;1.20;99.90
5834;DHT22;2943;48.012;10.968;2024-01-07T08:00:28;1.20;99.90
5834;DHT22;2943;48.012;10.968;2024-01-07T08:02:55;1.20;99.90
5834;DHT22;2943;48.012;10.968;2024-01-07T08:05:22;1.20;99.90
5834;DHT22;2943;48.012;10.968;2024-01-07T08:07:49;1.20;99.90
5834;DHT22;2943;48.012;10.968;2024-01-07T08:10:17;1.20;99.90
5834;DHT22;2943;48.012;10.968;2024-01-07T08:12:43;1.20;99.90
5834;DHT22;2943;48.012;10.968;2024-01-07T08:15:10;1.30;99.90
5834;DHT22;2943;48.012;10.968;2024-01-07T08:17:40;1.30;99.90
5834;DHT22;2943;48.012;10.968;2024-01-07T08:20:10;1.30;99.90
5834;DHT22;2943;48.012;10.968;2024-01-07T08:22:37;1.30;99.90
5834;DHT22;2943;48.012;10.968;2024-01-07T08:25:05;1.30;99.90
5834;DHT22;2943;48.012;10.968;2024-01-07T08:27:34;1.20;99.90
5834;DHT22;2943;48.012;10.968;2024-01-07T08:30:03;1.20;99.90
5834;DHT22;2943;48.012;10.968;2024-01-07T08:32:30;1.10;99.90
5834;DHT22;2943;48.012;10.968;2024-01-07T08:34:56;1.10;99.90
5834;DHT22;2943;48.012;10.968;2024-01-07T08:37:24;1.10;99.90
5834;DHT22;2943;48.012;10.968;2024-01-07T08:39:51;1.10;99.90
5834;DHT22;2943;48.012;10.968;2024-01-07T08:42:18;1.20;99.90
5834;DHT22;2943;48.012;10.968;2024-01-07T08:44:46;1.20;99.90
5834;DHT22;2943;48.012;10.968;2024-01-07T08:47:13;1.20;99.90
5834;DHT22;2943;48.012;10.968;2024-01-07T08:49:41;1.20;99.90
5834;DHT22;2943;48.012;10.968;2024-01-07T08:52:09;1.20;99.90
5834;DHT22;2943;48.012;10.968;2024-01-07T08:54:36;1.30;99.90
5834;DHT22;2943;48.012;10.968;2024-01-07T08:57:02;1.30;99.90
5834;DHT22;2943;48.012;10.968;2024-01-07T08:59:29;1.30;99.90
5834;DHT22;2943;48.012;10.968;2024-01-07T09:01:58;1.40;99.90
5834;DHT22;2943;48.012;10.968;2024-01-07T09:04:25;1.40;99.90
5834;DHT22;2943;48.012;10.968;2024-01-07T09:06:52;1.40;99.90
5834;DHT22;2943;48.012;10.968;2024-01-07T09:09:18;1.50;99.90
5834;DHT22;2943;48.012;10.968;2024-01-07T09:11:46;1.50;99.90
5834;DHT22;2943;48.012;10.968;2024-01-07T09:14:13;1.50;99.90
5834;DHT22;2943;48.012;10.968;2024-01-07T09:16:42;1.50;99.90
5834;DHT22;2943;48.012;10.968;2024-01-07T09:19:11;1.60;99.90
5834;DHT22;2943;48.012;10.968;2024-01-07T09:21:38;1.60;99.90
5834;DHT22;2943;48.012;10.968;2024-01-07T09:24:05;1.60;99.90
5834;DHT22;2943;48.012;10.968;2024-01-07T09:26:32;1.60;99.90
5834;DHT22;2943;48.012;10.968;2024-01-07T09:28:59;1.60;99.90
5834;DHT22;2943;48.012;10.968;2024-01-07T09:31:27;1.60;99.90
5834;DHT22;2943;48.012;10.968;2024-01-07T09:33:54;1.70;99.90
5834;DHT22;2943;48.012;10.968;2024-01-07T09:36:22;1.70;99.90
5834;DHT22;2943;48.012;10.968;2024-01-07T09:38:49;1.70;99.90
5834;DHT22;2943;48.012;10.968;2024-01-07T09:41:16;1.80;99.90
5834;DHT22;2943;48.012;10.968;2024-01-07T09:43:43;1.80;99.90
5834;DHT22;2943;48.012;10.968;2024-01-07T09:46:10;1.80;99.90
5834;DHT22;2943;48.012;10.968;2024-01-07T09:48:36;1.80;99.90
5834;DHT22;2943;48.012;10.968;2024-01-07T09:51:04;1.90;99.90
5834;DHT22;2943;48.012;10.968;2024-01-07T09:53:35;1.90;99.90
5834;DHT22;2943;48.012;10.968;2024-01-07T09:56:11;1.90;99.90
5834;DHT22;2943;48.012;10.968;2024-01-07T09:58:39;2.00;99.90
5834;DHT22;2943;48.012;10.968;2024-01-07T10:01:08;2.00;99.90
5834;DHT22;2943;48.012;10.968;2024-01-07T10:03:35;2.00;99.90
5834;DHT22;2943;48.012;10.968;2024-01-07T10:06:03;2.00;99.90
5834;DHT22;2943;48.012;10.968;2024-01-07T10:08:31;2.00;99.90
5834;DHT22;2943;48.012;10.968;2024-01-07T10:11:01;1.90;99.90
5834;DHT22;2943;48.012;10.968;2024-01-07T10:13:30;1.90;99.90
5834;DHT22;2943;48.012;10.968;2024-01-07T10:15:58;1.90;99.90
5834;DHT22;2943;48.012;10.968;2024-01-07T10:18:25;1.90;99.90
5834;DHT22;2943;48.012;10.968;2024-01-07T10:20:54;1.80;99.90
5834;DHT22;2943;48.012;10.968;2024-01-07T10:23:21;1.80;99.90
5834;DHT22;2943;48.012;10.968;2024-01-07T10:25:48;1.80;99.90
5834;DHT22;2943;48.012;10.968;2024-01-07T10:28:16;1.80;99.90
5834;DHT22;2943;48.012;10.968;2024-01-07T10:30:48;1.70;99.90
5834;DHT22;2943;48.012;10.968;2024-01-07T10:33:17;1.70;99.90
5834;DHT22;2943;48.012;10.968;2024-01-07T10:35:46;1.70;99.90
5834;DHT22;2943;48.012;10.968;2024-01-07T10:38:15;1.70;99.90
5834;DHT22;2943;48.012;10.968;2024-01-07T10:40:44;1.70;99.90
5834;DHT22;2943;48.012;10.968;2024-01-07T10:43:13;1.70;99.90
5834;DHT22;2943;48.012;10.968;2024-01-07T10:45:46;1.60;99.90
5834;DHT22;2943;48.012;10.968;2024-01-07T10:48:17;1.60;99.90
5834;DHT22;2943;48.012;10.968;2024-01-07T10:50:45;1.50;99.90
5834;DHT22;2943;48.012;10.968;2024-01-07T10:53:18;1.50;99.90
5834;DHT22;2943;48.012;10.968;2024-01-07T10:55:52;1.50;99.90
5834;DHT22;2943;48.012;10.968;2024-01-07T10:58:21;1.60;99.90
5834;DHT22;2943;48.012;10.968;2024-01-07T11:00:50;1.50;99.90
5834;DHT22;2943;48.012;10.968;2024-01-07T11:03:23;1.50;99.90
5834;DHT22;2943;48.012;10.968;2024-01-07T11:05:56;1.40;99.90
5834;DHT22;2943;48.012;10.968;2024-01-07T11:08:28;1.50;99.90
5834;DHT22;2943;48.012;10.968;2024-01-07T11:11:05;1.40;99.90
5834;DHT22;2943;48.012;10.968;2024-01-07T11:13:33;1.30;99.90
5834;DHT22;2943;48.012;10.968;2024-01-07T11:16:03;1.30;99.90
5834;DHT22;2943;48.012;10.968;2024-01-07T11:18:31;1.20;99.90
5834;DHT22;2943;48.012;10.968;2024-01-07T11:21:00;1.20;99.90
5834;DHT22;2943;48.012;10.968;2024-01-07T11:23:29;1.20;99.90
5834;DHT22;2943;48.012;10.968;2024-01-07T11:25:58;1.20;99.90
5834;DHT22;2943;48.012;10.968;2024-01-07T11:28:49;1.20;99.90
5834;DHT22;2943;48.012;10.968;2024-01-07T11:31:19;1.30;99.90
5834;DHT22;2943;48.012;10.968;2024-01-07T11:33:47;1.30;99.90
5834;DHT22;2943;48.012;10.968;2024-01-07T11:36:15;1.30;99.90
5834;DHT22;2943;48.012;10.968;2024-01-07T11:38:43;1.40;99.90
5834;DHT22;2943;48.012;10.968;2024-01-07T11:41:12;1.40;99.90
5834;DHT22;2943;48.012;10.968;2024-01-07T11:43:52;1.40;99.90
5834;DHT22;2943;48.012;10.968;2024-01-07T11:46:21;1.30;99.90
5834;DHT22;2943;48.012;10.968;2024-01-07T11:48:48;1.20;99.90
5834;DHT22;2943;48.012;10.968;2024-01-07T11:51:16;1.20;99.90
5834;DHT22;2943;48.012;10.968;2024-01-07T11:53:46;1.10;99.90
5834;DHT22;2943;48.012;10.968;2024-01-07T11:56:12;1.10;99.90
5834;DHT22;2943;48.012;10.968;2024-01-07T11:58:40;1.00;99.90
5834;DHT22;2943;48.012;10.968;2024-01-07T12:01:07;1.00;99.90
5834;DHT22;2943;48.012;10.968;2024-01-07T12:03:36;1.00;99.90
5834;DHT22;2943;48.012;10.968;2024-01-07T12:06:03;1.00;99.90
5834;DHT22;2943;48.012;10.968;2024-01-07T12:08:30;1.10;99.90
5834;DHT22;2943;48.012;10.968;2024-01-07T12:10:57;1.10;99.90
5834;DHT22;2943;48.012;10.968;2024-01-07T12:13:26;1.10;99.90
5834;DHT22;2943;48.012;10.968;2024-01-07T12:15:54;1.20;99.90
5834;DHT22;2943;48.012;10.968;2024-01-07T12:18:22;1.50;99.90
5834;DHT22;2943;48.012;10.968;2024-01-07T12:20:56;1.80;99.90
5834;DHT22;2943;48.012;10.968;2024-01-07T12:23:24;2.00;99.90
5834;DHT22;2943;48.012;10.968;2024-01-07T12:25:52;2.10;99.90
5834;DHT22;2943;48.012;10.968;2024-01-07T12:28:24;2.30;99.90
5834;DHT22;2943;48.012;10.968;2024-01-07T12:30:52;2.40;99.90
5834;DHT22;2943;48.012;10.968;2024-01-07T12:33:22;2.40;99.90
5834;DHT22;2943;48.012;10.968;2024-01-07T12:35:49;2.40;99.90
5834;DHT22;2943;48.012;10.968;2024-01-07T12:38:23;2.40;99.90
5834;DHT22;2943;48.012;10.968;2024-01-07T12:40:50;2.50;99.90
5834;DHT22;2943;48.012;10.968;2024-01-07T12:43:19;2.50;99.90
5834;DHT22;2943;48.012;10.968;2024-01-07T12:45:48;2.50;99.90
5834;DHT22;2943;48.012;10.968;2024-01-07T12:48:16;2.50;99.90
5834;DHT22;2943;48.012;10.968;2024-01-07T12:50:47;2.40;99.90
5834;DHT22;2943;48.012;10.968;2024-01-07T12:53:14;2.30;99.90
5834;DHT22;2943;48.012;10.968;2024-01-07T12:55:43;2.20;99.90
5834;DHT22;2943;48.012;10.968;2024-01-07T12:58:10;2.20;99.90
5834;DHT22;2943;48.012;10.968;2024-01-07T13:00:37;2.00;99.90
5834;DHT22;2943;48.012;10.968;2024-01-07T13:03:07;1.90;99.90
5834;DHT22;2943;48.012;10.968;2024-01-07T13:05:39;1.80;99.90
5834;DHT22;2943;48.012;10.968;2024-01-07T13:08:07;1.70;99.90
5834;DHT22;2943;48.012;10.968;2024-01-07T13:10:34;1.60;99.90
5834;DHT22;2943;48.012;10.968;2024-01-07T13:13:03;1.40;99.90
5834;DHT22;2943;48.012;10.968;2024-01-07T13:15:31;1.30;99.90
5834;DHT22;2943;48.012;10.968;2024-01-07T13:17:58;1.10;99.90
5834;DHT22;2943;48.012;10.968;2024-01-07T13:20:25;0.90;99.90
5834;DHT22;2943;48.012;10.968;2024-01-07T13:22:52;0.80;99.90
5834;DHT22;2943;48.012;10.968;2024-01-07T13:25:19;0.80;99.90
5834;DHT22;2943;48.012;10.968;2024-01-07T13:27:46;0.70;99.90
5834;DHT22;2943;48.012;10.968;2024-01-07T13:30:15;0.70;99.90
5834;DHT22;2943;48.012;10.968;2024-01-07T13:32:42;0.70;99.90
5834;DHT22;2943;48.012;10.968;2024-01-07T13:35:09;0.60;99.90
5834;DHT22;2943;48.012;10.968;2024-01-07T13:37:38;0.60;99.90
5834;DHT22;2943;48.012;10.968;2024-01-07T13:40:08;0.50;99.90
5834;DHT22;2943;48.012;10.968;2024-01-07T13:42:36;0.50;99.90
5834;DHT22;2943;48.012;10.968;2024-01-07T13:45:04;0.40;99.90
5834;DHT22;2943;48.012;10.968;2024-01-07T13:47:33;0.40;99.90
5834;DHT22;2943;48.012;10.968;2024-01-07T13:50:01;0.30;99.90
5834;DHT22;2943;48.012;10.968;2024-01-07T13:52:29;0.30;99.90
5834;DHT22;2943;48.012;10.968;2024-01-07T13:54:56;0.30;99.90
5834;DHT22;2943;48.012;10.968;2024-01-07T13:57:23;0.20;99.90
5834;DHT22;2943;48.012;10.968;2024-01-07T13:59:50;0.20;99.90
5834;DHT22;2943;48.012;10.968;2024-01-07T14:02:18;0.20;99.90
5834;DHT22;2943;48.012;10.968;2024-01-07T14:04:46;0.30;99.90
5834;DHT22;2943;48.012;10.968;2024-01-07T14:07:13;0.30;99.90
5834;DHT22;2943;48.012;10.968;2024-01-07T14:09:40;0.30;99.90
5834;DHT22;2943;48.012;10.968;2024-01-07T14:12:08;0.30;99.90
5834;DHT22;2943;48.012;10.968;2024-01-07T14:14:35;0.30;99.90
5834;DHT22;2943;48.012;10.968;2024-01-07T14:17:02;0.30;99.90
5834;DHT22;2943;48.012;10.968;2024-01-07T14:19:29;0.40;99.90
5834;DHT22;2943;48.012;10.968;2024-01-07T14:21:57;0.40;99.90
5834;DHT22;2943;48.012;10.968;2024-01-07T14:24:24;0.40;99.90
5834;DHT22;2943;48.012;10.968;2024-01-07T14:26:51;0.40;99.90
5834;DHT22;2943;48.012;10.968;2024-01-07T14:29:18;0.40;99.90
5834;DHT22;2943;48.012;10.968;2024-01-07T14:31:45;0.40;99.90
5834;DHT22;2943;48.012;10.968;2024-01-07T14:34:13;0.30;99.90
5834;DHT22;2943;48.012;10.968;2024-01-07T14:36:41;0.30;99.90
5834;DHT22;2943;48.012;10.968;2024-01-07T14:39:11;0.30;99.90
5834;DHT22;2943;48.012;10.968;2024-01-07T14:41:39;0.30;99.90
5834;DHT22;2943;48.012;10.968;2024-01-07T14:44:06;0.30;99.90
5834;DHT22;2943;48.012;10.968;2024-01-07T14:46:33;0.20;99.90
5834;DHT22;2943;48.012;10.968;2024-01-07T14:49:00;0.20;99.90
5834;DHT22;2943;48.012;10.968;2024-01-07T14:51:26;0.20;99.90
5834;DHT22;2943;48.012;10.968;2024-01-07T14:53:53;0.10;99.90
5834;DHT22;2943;48.012;10.968;2024-01-07T14:56:22;0.10;99.90
5834;DHT22;2943;48.012;10.968;2024-01-07T14:58:49;0.10;99.90
5834;DHT22;2943;48.012;10.968;2024-01-07T15:01:16;0.10;99.90
5834;DHT22;2943;48.012;10.968;2024-01-07T15:03:44;0.10;99.90
5834;DHT22;2943;48.012;10.968;2024-01-07T15:06:11;0.10;99.90
5834;DHT22;2943;48.012;10.968;2024-01-07T15:08:40;0.10;99.90
5834;DHT22;2943;48.012;10.968;2024-01-07T15:11:08;0.10;99.90
5834;DHT22;2943;48.012;10.968;2024-01-07T15:13:36;0.00;99.90
5834;DHT22;2943;48.012;10.968;2024-01-07T15:16:05;0.10;99.90
5834;DHT22;2943;48.012;10.968;2024-01-07T15:18:32;0.00;99.90
5834;DHT22;2943;48.012;10.968;2024-01-07T15:20:59;0.00;99.90
5834;DHT22;2943;48.012;10.968;2024-01-07T15:23:26;0.00;99.90
5834;DHT22;2943;48.012;10.968;2024-01-07T15:25:53;0.00;99.90
5834;DHT22;2943;48.012;10.968;2024-01-07T15:28:20;0.00;99.90
5834;DHT22;2943;48.012;10.968;2024-01-07T15:30:49;-0.10;99.90
5834;DHT22;2943;48.012;10.968;2024-01-07T15:33:16;-0.10;99.90
5834;DHT22;2943;48.012;10.968;2024-01-07T15:35:43;0.00;99.90
5834;DHT22;2943;48.012;10.968;2024-01-07T15:38:10;0.00;99.90
5834;DHT22;2943;48.012;10.968;2024-01-07T15:40:37;0.00;99.90
5834;DHT22;2943;48.012;10.968;2024-01-07T15:43:04;-0.10;99.90
5834;DHT22;2943;48.012;10.968;2024-01-07T15:45:31;-0.10;99.90
5834;DHT22;2943;48.012;10.968;2024-01-07T15:47:59;-0.20;99.90
5834;DHT22;2943;48.012;10.968;2024-01-07T15:50:26;-0.20;99.90
5834;DHT22;2943;48.012;10.968;2024-01-07T15:52:54;-0.30;99.90
5834;DHT22;2943;48.012;10.968;2024-01-07T15:55:23;-0.40;99.90
5834;DHT22;2943;48.012;10.968;2024-01-07T15:57:50;-0.50;99.90
5834;DHT22;2943;48.012;10.968;2024-01-07T16:00:19;-0.70;99.90
5834;DHT22;2943;48.012;10.968;2024-01-07T16:02:46;-0.60;99.90
5834;DHT22;2943;48.012;10.968;2024-01-07T16:05:15;-0.60;99.90